sensor_id;sensor_type;location;lat;lon;timestamp;P1;durP1;ratioP1;P2;durP2;ratioP2
14738;SDS011;7461;52.440;13.540;2024-03-07T00:01:06;148.27;;;92.45;;
14738;SDS011;7461;52.440;13.540;2024-03-07T00:03:33;147.00;;;93.38;;
14738;SDS011;7461;52.440;13.540;2024-03-07T00:06:02;152.57;;;92.75;;
14738;SDS011;7461;52.440;13.540;2024-03-07T00:08:29;147.88;;;97.68;;
14738;SDS011;7461;52.440;13.540;2024-03-07T00:10:57;143.20;;;93.30;;
14738;SDS011;7461;52.440;13.540;2024-03-07T00:13:24;148.35;;;97.13;;
14738;SDS011;7461;52.440;13.540;2024-03-07T00:15:52;148.68;;;95.93;;
14738;SDS011;7461;52.440;13.540;2024-03-07T00:18:20;137.93;;;91.55;;
14738;SDS011;7461;52.440;13.540;2024-03-07T00:20:48;152.27;;;96.70;;
14738;SDS011;7461;52.440;13.540;2024-03-07T00:23:16;160.63;;;98.15;;
14738;SDS011;7461;52.440;13.540;2024-03-07T00:25:43;129.27;;;91.88;;
14738;SDS011;7461;52.440;13.540;2024-03-07T00:28:11;143.05;;;95.30;;
14738;SDS011;7461;52.440;13.540;2024-03-07T00:30:38;141.25;;;94.28;;
14738;SDS011;7461;52.440;13.540;2024-03-07T00:33:06;158.63;;;97.35;;
14738;SDS011;7461;52.440;13.540;2024-03-07T00:35:33;139.25;;;86.78;;
14738;SDS011;7461;52.440;13.540;2024-03-07T00:38:00;147.93;;;90.47;;
14738;SDS011;7461;52.440;13.540;2024-03-07T00:40:29;149.70;;;91.32;;
14738;SDS011;7461;52.440;13.540;2024-03-07T00:42:56;132.00;;;86.97;;
14738;SDS011;7461;52.440;13.540;2024-03-07T00:45:24;163.18;;;92.97;;
14738;SDS011;7461;52.440;13.540;2024-03-07T00:47:51;142.68;;;92.63;;
14738;SDS011;7461;52.440;13.540;2024-03-07T00:50:18;150.02;;;93.43;;
14738;SDS011;7461;52.440;13.540;2024-03-07T00:52:46;136.50;;;87.30;;
14738;SDS011;7461;52.440;13.540;2024-03-07T00:55:13;147.02;;;88.68;;
14738;SDS011;7461;52.440;13.540;2024-03-07T00:57:42;146.77;;;89.07;;
14738;SDS011;7461;52.440;13.540;2024-03-07T01:00:10;136.48;;;89.80;;
14738;SDS011;7461;52.440;13.540;2024-03-07T01:02:39;157.20;;;95.65;;
14738;SDS011;7461;52.440;13.540;2024-03-07T01:05:08;154.95;;;94.13;;
14738;SDS011;7461;52.440;13.540;2024-03-07T01:07:38;136.20;;;90.85;;
14738;SDS011;7461;52.440;13.540;2024-03-07T01:10:06;138.07;;;96.22;;
14738;SDS011;7461;52.440;13.540;2024-03-07T01:12:34;152.27;;;97.63;;
14738;SDS011;7461;52.440;13.540;2024-03-07T01:15:03;143.57;;;86.47;;
14738;SDS011;7461;52.440;13.540;2024-03-07T01:17:30;137.57;;;87.18;;
14738;SDS011;7461;52.440;13.540;2024-03-07T01:19:57;134.43;;;87.20;;
14738;SDS011;7461;52.440;13.540;2024-03-07T01:22:24;143.93;;;92.55;;
14738;SDS011;7461;52.440;13.540;2024-03-07T01:24:52;139.55;;;85.88;;
14738;SDS011;7461;52.440;13.540;2024-03-07T01:27:19;135.75;;;88.45;;
14738;SDS011;7461;52.440;13.540;2024-03-07T01:29:49;143.63;;;90.10;;
14738;SDS011;7461;52.440;13.540;2024-03-07T01:32:19;131.02;;;87.22;;
14738;SDS011;7461;52.440;13.540;2024-03-07T01:34:47;150.70;;;92.40;;
14738;SDS011;7461;52.440;13.540;2024-03-07T01:37:14;131.98;;;90.00;;
14738;SDS011;7461;52.440;13.540;2024-03-07T01:39:41;132.60;;;85.00;;
14738;SDS011;7461;52.440;13.540;2024-03-07T01:42:09;136.07;;;82.82;;
14738;SDS011;7461;52.440;13.540;2024-03-07T01:44:36;135.35;;;85.28;;
14738;SDS011;7461;52.440;13.540;2024-03-07T01:47:05;131.55;;;84.00;;
14738;SDS011;7461;52.440;13.540;2024-03-07T01:49:34;134.13;;;85.03;;
14738;SDS011;7461;52.440;13.540;2024-03-07T01:52:01;119.10;;;77.13;;
14738;SDS011;7461;52.440;13.540;2024-03-07T01:54:30;122.00;;;79.65;;
14738;SDS011;7461;52.440;13.540;2024-03-07T01:56:57;107.20;;;77.25;;
14738;SDS011;7461;52.440;13.540;2024-03-07T01:59:25;117.90;;;79.45;;
14738;SDS011;7461;52.440;13.540;2024-03-07T02:01:55;96.10;;;73.53;;
14738;SDS011;7461;52.440;13.540;2024-03-07T02:04:22;110.00;;;74.43;;
14738;SDS011;7461;52.440;13.540;2024-03-07T02:06:51;112.55;;;78.55;;
14738;SDS011;7461;52.440;13.540;2024-03-07T02:09:20;113.30;;;76.60;;
14738;SDS011;7461;52.440;13.540;2024-03-07T02:11:47;111.70;;;75.85;;
14738;SDS011;7461;52.440;13.540;2024-03-07T02:14:14;102.75;;;76.65;;
14738;SDS011;7461;52.440;13.540;2024-03-07T02:16:42;96.55;;;73.55;;
14738;SDS011;7461;52.440;13.540;2024-03-07T02:19:10;105.38;;;71.53;;
14738;SDS011;7461;52.440;13.540;2024-03-07T02:21:39;98.47;;;73.35;;
14738;SDS011;7461;52.440;13.540;2024-03-07T02:24:07;113.65;;;76.95;;
14738;SDS011;7461;52.440;13.540;2024-03-07T02:26:34;107.80;;;74.43;;
14738;SDS011;7461;52.440;13.540;2024-03-07T02:29:01;105.90;;;77.28;;
14738;SDS011;7461;52.440;13.540;2024-03-07T02:31:29;106.80;;;74.13;;
14738;SDS011;7461;52.440;13.540;2024-03-07T02:34:02;101.68;;;77.03;;
14738;SDS011;7461;52.440;13.540;2024-03-07T02:36:29;95.00;;;69.20;;
14738;SDS011;7461;52.440;13.540;2024-03-07T02:38:58;95.55;;;73.47;;
14738;SDS011;7461;52.440;13.540;2024-03-07T02:41:25;119.75;;;79.03;;
14738;SDS011;7461;52.440;13.540;2024-03-07T02:43:53;100.78;;;72.38;;
14738;SDS011;7461;52.440;13.540;2024-03-07T02:46:20;94.22;;;69.15;;
14738;SDS011;7461;52.440;13.540;2024-03-07T02:48:47;96.97;;;72.18;;
14738;SDS011;7461;52.440;13.540;2024-03-07T02:51:14;95.10;;;72.38;;
14738;SDS011;7461;52.440;13.540;2024-03-07T02:53:41;101.13;;;72.55;;
14738;SDS011;7461;52.440;13.540;2024-03-07T02:56:10;102.40;;;73.32;;
14738;SDS011;7461;52.440;13.540;2024-03-07T02:58:37;114.82;;;72.85;;
14738;SDS011;7461;52.440;13.540;2024-03-07T03:01:06;102.25;;;74.07;;
14738;SDS011;7461;52.440;13.540;2024-03-07T03:03:33;111.80;;;76.20;;
14738;SDS011;7461;52.440;13.540;2024-03-07T03:06:01;94.72;;;68.50;;
14738;SDS011;7461;52.440;13.540;2024-03-07T03:08:28;101.10;;;74.25;;
14738;SDS011;7461;52.440;13.540;2024-03-07T03:10:55;105.93;;;72.28;;
14738;SDS011;7461;52.440;13.540;2024-03-07T03:13:24;106.05;;;71.22;;
14738;SDS011;7461;52.440;13.540;2024-03-07T03:15:52;110.70;;;71.50;;
14738;SDS011;7461;52.440;13.540;2024-03-07T03:18:20;94.32;;;67.47;;
14738;SDS011;7461;52.440;13.540;2024-03-07T03:20:48;90.68;;;67.07;;
14738;SDS011;7461;52.440;13.540;2024-03-07T03:23:15;94.07;;;70.00;;
14738;SDS011;7461;52.440;13.540;2024-03-07T03:25:43;89.78;;;68.15;;
14738;SDS011;7461;52.440;13.540;2024-03-07T03:28:10;103.22;;;68.95;;
14738;SDS011;7461;52.440;13.540;2024-03-07T03:30:39;104.40;;;70.35;;
14738;SDS011;7461;52.440;13.540;2024-03-07T03:33:08;102.93;;;70.93;;
14738;SDS011;7461;52.440;13.540;2024-03-07T03:35:35;106.18;;;71.03;;
14738;SDS011;7461;52.440;13.540;2024-03-07T03:38:03;90.03;;;69.80;;
14738;SDS011;7461;52.440;13.540;2024-03-07T03:40:30;93.90;;;69.22;;
14738;SDS011;7461;52.440;13.540;2024-03-07T03:42:57;102.20;;;71.18;;
14738;SDS011;7461;52.440;13.540;2024-03-07T03:45:25;97.18;;;66.50;;
14738;SDS011;7461;52.440;13.540;2024-03-07T03:47:53;94.45;;;68.15;;
14738;SDS011;7461;52.440;13.540;2024-03-07T03:50:21;95.13;;;68.85;;
14738;SDS011;7461;52.440;13.540;2024-03-07T03:52:49;90.82;;;65.85;;
14738;SDS011;7461;52.440;13.540;2024-03-07T03:55:16;96.20;;;70.97;;
14738;SDS011;7461;52.440;13.540;2024-03-07T03:57:43;99.05;;;66.45;;
14738;SDS011;7461;52.440;13.540;2024-03-07T04:00:12;84.28;;;67.65;;
14738;SDS011;7461;52.440;13.540;2024-03-07T04:02:39;87.70;;;71.80;;
14738;SDS011;7461;52.440;13.540;2024-03-07T04:05:08;82.50;;;66.25;;
14738;SDS011;7461;52.440;13.540;2024-03-07T04:07:36;80.03;;;62.33;;
14738;SDS011;7461;52.440;13.540;2024-03-07T04:10:04;87.47;;;63.97;;
14738;SDS011;7461;52.440;13.540;2024-03-07T04:12:32;87.55;;;61.90;;
14738;SDS011;7461;52.440;13.540;2024-03-07T04:15:00;87.18;;;61.05;;
14738;SDS011;7461;52.440;13.540;2024-03-07T04:17:29;88.78;;;64.78;;
14738;SDS011;7461;52.440;13.540;2024-03-07T04:19:56;80.47;;;63.50;;
14738;SDS011;7461;52.440;13.540;2024-03-07T04:22:26;80.57;;;66.70;;
14738;SDS011;7461;52.440;13.540;2024-03-07T04:24:53;81.47;;;61.25;;
14738;SDS011;7461;52.440;13.540;2024-03-07T04:27:20;84.25;;;66.53;;
14738;SDS011;7461;52.440;13.540;2024-03-07T04:29:48;75.63;;;65.20;;
14738;SDS011;7461;52.440;13.540;2024-03-07T04:32:15;76.28;;;61.53;;
14738;SDS011;7461;52.440;13.540;2024-03-07T04:34:43;71.38;;;63.50;;
14738;SDS011;7461;52.440;13.540;2024-03-07T04:37:10;71.07;;;61.33;;
14738;SDS011;7461;52.440;13.540;2024-03-07T04:39:39;72.72;;;65.28;;
14738;SDS011;7461;52.440;13.540;2024-03-07T04:42:07;78.53;;;62.80;;
14738;SDS011;7461;52.440;13.540;2024-03-07T04:44:35;74.47;;;61.35;;
14738;SDS011;7461;52.440;13.540;2024-03-07T04:47:04;67.78;;;60.47;;
14738;SDS011;7461;52.440;13.540;2024-03-07T04:49:32;72.57;;;64.13;;
14738;SDS011;7461;52.440;13.540;2024-03-07T04:52:00;70.82;;;62.22;;
14738;SDS011;7461;52.440;13.540;2024-03-07T04:54:28;74.57;;;66.60;;
14738;SDS011;7461;52.440;13.540;2024-03-07T04:56:58;78.30;;;62.05;;
14738;SDS011;7461;52.440;13.540;2024-03-07T04:59:25;73.60;;;65.80;;
14738;SDS011;7461;52.440;13.540;2024-03-07T05:01:52;72.72;;;64.78;;
14738;SDS011;7461;52.440;13.540;2024-03-07T05:04:19;68.10;;;60.67;;
14738;SDS011;7461;52.440;13.540;2024-03-07T05:06:49;63.83;;;56.88;;
14738;SDS011;7461;52.440;13.540;2024-03-07T05:09:16;73.03;;;65.10;;
14738;SDS011;7461;52.440;13.540;2024-03-07T05:11:53;73.10;;;62.22;;
14738;SDS011;7461;52.440;13.540;2024-03-07T05:14:22;73.57;;;61.55;;
14738;SDS011;7461;52.440;13.540;2024-03-07T05:16:50;74.25;;;61.42;;
14738;SDS011;7461;52.440;13.540;2024-03-07T05:19:30;69.85;;;62.60;;
14738;SDS011;7461;52.440;13.540;2024-03-07T05:21:57;66.30;;;59.17;;
14738;SDS011;7461;52.440;13.540;2024-03-07T05:24:24;63.15;;;56.40;;
14738;SDS011;7461;52.440;13.540;2024-03-07T05:26:52;73.63;;;63.97;;
14738;SDS011;7461;52.440;13.540;2024-03-07T05:29:19;69.85;;;62.55;;
14738;SDS011;7461;52.440;13.540;2024-03-07T05:31:48;69.45;;;61.92;;
14738;SDS011;7461;52.440;13.540;2024-03-07T05:34:16;67.32;;;60.17;;
14738;SDS011;7461;52.440;13.540;2024-03-07T05:36:44;67.15;;;60.15;;
14738;SDS011;7461;52.440;13.540;2024-03-07T05:39:12;68.28;;;61.50;;
14738;SDS011;7461;52.440;13.540;2024-03-07T05:41:39;69.18;;;61.80;;
14738;SDS011;7461;52.440;13.540;2024-03-07T05:44:07;69.75;;;62.85;;
14738;SDS011;7461;52.440;13.540;2024-03-07T05:46:35;68.82;;;61.38;;
14738;SDS011;7461;52.440;13.540;2024-03-07T05:49:07;71.30;;;63.90;;
14738;SDS011;7461;52.440;13.540;2024-03-07T05:51:34;68.80;;;60.58;;
14738;SDS011;7461;52.440;13.540;2024-03-07T05:54:02;67.88;;;60.33;;
14738;SDS011;7461;52.440;13.540;2024-03-07T05:56:32;71.00;;;61.78;;
14738;SDS011;7461;52.440;13.540;2024-03-07T05:59:01;67.28;;;60.03;;
14738;SDS011;7461;52.440;13.540;2024-03-07T06:01:30;72.93;;;63.10;;
14738;SDS011;7461;52.440;13.540;2024-03-07T06:03:59;74.15;;;62.03;;
14738;SDS011;7461;52.440;13.540;2024-03-07T06:06:28;64.18;;;57.83;;
14738;SDS011;7461;52.440;13.540;2024-03-07T06:08:57;65.07;;;58.53;;
14738;SDS011;7461;52.440;13.540;2024-03-07T06:11:24;64.30;;;57.47;;
14738;SDS011;7461;52.440;13.540;2024-03-07T06:13:51;64.43;;;57.40;;
14738;SDS011;7461;52.440;13.540;2024-03-07T06:16:18;65.03;;;58.03;;
14738;SDS011;7461;52.440;13.540;2024-03-07T06:18:46;66.53;;;59.40;;
14738;SDS011;7461;52.440;13.540;2024-03-07T06:21:13;63.63;;;57.00;;
14738;SDS011;7461;52.440;13.540;2024-03-07T06:23:42;62.20;;;53.67;;
14738;SDS011;7461;52.440;13.540;2024-03-07T06:26:12;60.95;;;54.75;;
14738;SDS011;7461;52.440;13.540;2024-03-07T06:28:42;61.17;;;54.72;;
14738;SDS011;7461;52.440;13.540;2024-03-07T06:31:10;60.35;;;54.38;;
14738;SDS011;7461;52.440;13.540;2024-03-07T06:33:37;63.25;;;56.83;;
14738;SDS011;7461;52.440;13.540;2024-03-07T06:36:05;64.63;;;56.97;;
14738;SDS011;7461;52.440;13.540;2024-03-07T06:38:34;61.38;;;54.83;;
14738;SDS011;7461;52.440;13.540;2024-03-07T06:41:03;63.80;;;57.20;;
14738;SDS011;7461;52.440;13.540;2024-03-07T06:43:30;64.15;;;57.35;;
14738;SDS011;7461;52.440;13.540;2024-03-07T06:45:57;64.03;;;57.85;;
14738;SDS011;7461;52.440;13.540;2024-03-07T06:48:25;60.00;;;53.70;;
14738;SDS011;7461;52.440;13.540;2024-03-07T06:50:53;60.05;;;53.85;;
14738;SDS011;7461;52.440;13.540;2024-03-07T06:53:20;63.25;;;54.25;;
14738;SDS011;7461;52.440;13.540;2024-03-07T06:55:51;59.90;;;53.97;;
14738;SDS011;7461;52.440;13.540;2024-03-07T06:58:19;59.63;;;53.28;;
14738;SDS011;7461;52.440;13.540;2024-03-07T07:00:48;60.13;;;53.67;;
14738;SDS011;7461;52.440;13.540;2024-03-07T07:03:18;56.67;;;51.03;;
14738;SDS011;7461;52.440;13.540;2024-03-07T07:05:46;55.63;;;49.92;;
14738;SDS011;7461;52.440;13.540;2024-03-07T07:08:13;55.15;;;50.03;;
14738;SDS011;7461;52.440;13.540;2024-03-07T07:10:41;58.22;;;52.05;;
14738;SDS011;7461;52.440;13.540;2024-03-07T07:13:08;58.13;;;52.10;;
14738;SDS011;7461;52.440;13.540;2024-03-07T07:15:39;54.78;;;48.85;;
14738;SDS011;7461;52.440;13.540;2024-03-07T07:18:06;55.17;;;49.35;;
14738;SDS011;7461;52.440;13.540;2024-03-07T07:20:35;52.40;;;47.90;;
14738;SDS011;7461;52.440;13.540;2024-03-07T07:23:03;55.15;;;49.25;;
14738;SDS011;7461;52.440;13.540;2024-03-07T07:25:30;51.80;;;46.72;;
14738;SDS011;7461;52.440;13.540;2024-03-07T07:27:57;51.03;;;45.67;;
14738;SDS011;7461;52.440;13.540;2024-03-07T07:30:25;48.45;;;43.78;;
14738;SDS011;7461;52.440;13.540;2024-03-07T07:32:54;49.92;;;45.05;;
14738;SDS011;7461;52.440;13.540;2024-03-07T07:35:21;48.67;;;44.28;;
14738;SDS011;7461;52.440;13.540;2024-03-07T07:37:50;47.63;;;43.22;;
14738;SDS011;7461;52.440;13.540;2024-03-07T07:40:19;47.15;;;42.85;;
14738;SDS011;7461;52.440;13.540;2024-03-07T07:42:48;47.90;;;43.35;;
14738;SDS011;7461;52.440;13.540;2024-03-07T07:45:16;43.22;;;39.28;;
14738;SDS011;7461;52.440;13.540;2024-03-07T07:47:44;43.90;;;40.00;;
14738;SDS011;7461;52.440;13.540;2024-03-07T07:50:15;42.92;;;38.88;;
14738;SDS011;7461;52.440;13.540;2024-03-07T07:52:43;47.40;;;42.80;;
14738;SDS011;7461;52.440;13.540;2024-03-07T07:55:13;46.65;;;42.30;;
14738;SDS011;7461;52.440;13.540;2024-03-07T07:57:41;43.67;;;39.67;;
14738;SDS011;7461;52.440;13.540;2024-03-07T08:00:10;39.85;;;36.30;;
14738;SDS011;7461;52.440;13.540;2024-03-07T08:02:37;43.33;;;39.17;;
14738;SDS011;7461;52.440;13.540;2024-03-07T08:05:05;38.40;;;34.92;;
14738;SDS011;7461;52.440;13.540;2024-03-07T08:07:33;39.83;;;36.33;;
14738;SDS011;7461;52.440;13.540;2024-03-07T08:10:01;39.78;;;36.42;;
14738;SDS011;7461;52.440;13.540;2024-03-07T08:12:28;38.25;;;35.05;;
14738;SDS011;7461;52.440;13.540;2024-03-07T08:14:56;36.28;;;32.85;;
14738;SDS011;7461;52.440;13.540;2024-03-07T08:17:23;38.65;;;35.30;;
14738;SDS011;7461;52.440;13.540;2024-03-07T08:19:50;37.47;;;33.78;;
14738;SDS011;7461;52.440;13.540;2024-03-07T08:22:18;38.05;;;34.72;;
14738;SDS011;7461;52.440;13.540;2024-03-07T08:24:47;36.67;;;33.10;;
14738;SDS011;7461;52.440;13.540;2024-03-07T08:27:14;34.45;;;31.25;;
14738;SDS011;7461;52.440;13.540;2024-03-07T08:29:41;36.50;;;33.10;;
14738;SDS011;7461;52.440;13.540;2024-03-07T08:32:08;36.50;;;33.22;;
14738;SDS011;7461;52.440;13.540;2024-03-07T08:34:35;36.20;;;32.88;;
14738;SDS011;7461;52.440;13.540;2024-03-07T08:37:03;37.13;;;33.85;;
14738;SDS011;7461;52.440;13.540;2024-03-07T08:39:30;34.25;;;31.48;;
14738;SDS011;7461;52.440;13.540;2024-03-07T08:41:59;37.17;;;33.47;;
14738;SDS011;7461;52.440;13.540;2024-03-07T08:44:26;36.92;;;33.67;;
14738;SDS011;7461;52.440;13.540;2024-03-07T08:46:53;35.58;;;32.53;;
14738;SDS011;7461;52.440;13.540;2024-03-07T08:49:20;34.88;;;31.98;;
14738;SDS011;7461;52.440;13.540;2024-03-07T08:51:48;35.92;;;32.30;;
14738;SDS011;7461;52.440;13.540;2024-03-07T08:54:15;30.95;;;27.92;;
14738;SDS011;7461;52.440;13.540;2024-03-07T08:56:45;33.22;;;30.33;;
14738;SDS011;7461;52.440;13.540;2024-03-07T08:59:14;33.55;;;30.42;;
14738;SDS011;7461;52.440;13.540;2024-03-07T09:01:43;30.45;;;28.05;;
14738;SDS011;7461;52.440;13.540;2024-03-07T09:04:10;30.70;;;28.33;;
14738;SDS011;7461;52.440;13.540;2024-03-07T09:06:39;29.65;;;26.92;;
14738;SDS011;7461;52.440;13.540;2024-03-07T09:09:06;30.60;;;28.02;;
14738;SDS011;7461;52.440;13.540;2024-03-07T09:11:37;31.67;;;28.83;;
14738;SDS011;7461;52.440;13.540;2024-03-07T09:14:07;33.30;;;29.92;;
14738;SDS011;7461;52.440;13.540;2024-03-07T09:16:36;32.58;;;29.55;;
14738;SDS011;7461;52.440;13.540;2024-03-07T09:19:03;31.02;;;28.25;;
14738;SDS011;7461;52.440;13.540;2024-03-07T09:21:30;30.48;;;27.77;;
14738;SDS011;7461;52.440;13.540;2024-03-07T09:23:57;26.98;;;24.63;;
14738;SDS011;7461;52.440;13.540;2024-03-07T09:26:24;31.75;;;28.52;;
14738;SDS011;7461;52.440;13.540;2024-03-07T09:28:52;28.00;;;25.60;;
14738;SDS011;7461;52.440;13.540;2024-03-07T09:31:20;26.17;;;23.98;;
14738;SDS011;7461;52.440;13.540;2024-03-07T09:33:49;24.30;;;22.08;;
14738;SDS011;7461;52.440;13.540;2024-03-07T09:36:16;27.67;;;25.15;;
14738;SDS011;7461;52.440;13.540;2024-03-07T09:38:44;22.77;;;20.75;;
14738;SDS011;7461;52.440;13.540;2024-03-07T09:41:11;23.75;;;21.60;;
14738;SDS011;7461;52.440;13.540;2024-03-07T09:43:40;21.73;;;19.88;;
14738;SDS011;7461;52.440;13.540;2024-03-07T09:46:09;23.13;;;20.95;;
14738;SDS011;7461;52.440;13.540;2024-03-07T09:48:37;23.13;;;21.00;;
14738;SDS011;7461;52.440;13.540;2024-03-07T09:51:05;23.33;;;21.25;;
14738;SDS011;7461;52.440;13.540;2024-03-07T09:53:34;23.33;;;21.38;;
14738;SDS011;7461;52.440;13.540;2024-03-07T09:56:04;25.80;;;23.65;;
14738;SDS011;7461;52.440;13.540;2024-03-07T09:58:33;24.33;;;22.10;;
14738;SDS011;7461;52.440;13.540;2024-03-07T10:01:01;24.35;;;22.20;;
14738;SDS011;7461;52.440;13.540;2024-03-07T10:03:30;24.33;;;21.92;;
14738;SDS011;7461;52.440;13.540;2024-03-07T10:05:58;22.05;;;20.05;;
14738;SDS011;7461;52.440;13.540;2024-03-07T10:08:27;20.88;;;19.20;;
14738;SDS011;7461;52.440;13.540;2024-03-07T10:10:56;22.25;;;20.25;;
14738;SDS011;7461;52.440;13.540;2024-03-07T10:13:23;21.85;;;18.30;;
14738;SDS011;7461;52.440;13.540;2024-03-07T10:15:51;22.55;;;20.40;;
14738;SDS011;7461;52.440;13.540;2024-03-07T10:18:24;21.55;;;19.42;;
14738;SDS011;7461;52.440;13.540;2024-03-07T10:20:53;21.38;;;19.65;;
14738;SDS011;7461;52.440;13.540;2024-03-07T10:23:20;22.25;;;20.15;;
14738;SDS011;7461;52.440;13.540;2024-03-07T10:25:49;23.30;;;20.85;;
14738;SDS011;7461;52.440;13.540;2024-03-07T10:28:18;23.23;;;21.27;;
14738;SDS011;7461;52.440;13.540;2024-03-07T10:30:46;21.15;;;19.45;;
14738;SDS011;7461;52.440;13.540;2024-03-07T10:33:15;21.25;;;19.08;;
14738;SDS011;7461;52.440;13.540;2024-03-07T10:35:42;21.67;;;19.85;;
14738;SDS011;7461;52.440;13.540;2024-03-07T10:38:09;21.88;;;19.92;;
14738;SDS011;7461;52.440;13.540;2024-03-07T10:40:38;22.15;;;20.33;;
14738;SDS011;7461;52.440;13.540;2024-03-07T10:43:10;21.33;;;19.63;;
14738;SDS011;7461;52.440;13.540;2024-03-07T10:45:42;22.48;;;20.23;;
14738;SDS011;7461;52.440;13.540;2024-03-07T10:48:12;20.80;;;18.90;;
14738;SDS011;7461;52.440;13.540;2024-03-07T10:50:42;20.50;;;18.42;;
14738;SDS011;7461;52.440;13.540;2024-03-07T10:53:12;19.50;;;17.45;;
14738;SDS011;7461;52.440;13.540;2024-03-07T10:55:46;22.52;;;20.33;;
14738;SDS011;7461;52.440;13.540;2024-03-07T10:58:18;23.42;;;21.25;;
14738;SDS011;7461;52.440;13.540;2024-03-07T11:00:51;20.80;;;19.05;;
14738;SDS011;7461;52.440;13.540;2024-03-07T11:03:22;22.58;;;20.58;;
14738;SDS011;7461;52.440;13.540;2024-03-07T11:05:50;20.90;;;19.25;;
14738;SDS011;7461;52.440;13.540;2024-03-07T11:08:17;19.30;;;17.70;;
14738;SDS011;7461;52.440;13.540;2024-03-07T11:10:46;20.00;;;18.38;;
14738;SDS011;7461;52.440;13.540;2024-03-07T11:13:13;20.83;;;18.88;;
14738;SDS011;7461;52.440;13.540;2024-03-07T11:15:43;22.45;;;20.55;;
14738;SDS011;7461;52.440;13.540;2024-03-07T11:18:12;22.35;;;20.25;;
14738;SDS011;7461;52.440;13.540;2024-03-07T11:20:40;19.23;;;17.45;;
14738;SDS011;7461;52.440;13.540;2024-03-07T11:23:27;20.52;;;18.65;;
14738;SDS011;7461;52.440;13.540;2024-03-07T11:25:55;20.48;;;18.92;;
14738;SDS011;7461;52.440;13.540;2024-03-07T11:28:28;20.83;;;19.13;;
14738;SDS011;7461;52.440;13.540;2024-03-07T11:31:08;24.85;;;22.65;;
14738;SDS011;7461;52.440;13.540;2024-03-07T11:33:36;23.30;;;21.42;;
14738;SDS011;7461;52.440;13.540;2024-03-07T11:36:06;25.80;;;23.17;;
14738;SDS011;7461;52.440;13.540;2024-03-07T11:38:33;24.45;;;22.35;;
14738;SDS011;7461;52.440;13.540;2024-03-07T11:41:00;24.25;;;21.98;;
14738;SDS011;7461;52.440;13.540;2024-03-07T11:43:29;24.05;;;22.00;;
14738;SDS011;7461;52.440;13.540;2024-03-07T11:45:56;25.15;;;23.02;;
14738;SDS011;7461;52.440;13.540;2024-03-07T11:48:25;24.42;;;21.98;;
14738;SDS011;7461;52.440;13.540;2024-03-07T11:50:52;24.35;;;22.40;;
14738;SDS011;7461;52.440;13.540;2024-03-07T11:53:20;22.98;;;20.92;;
14738;SDS011;7461;52.440;13.540;2024-03-07T11:55:48;26.08;;;23.67;;
14738;SDS011;7461;52.440;13.540;2024-03-07T11:58:16;26.00;;;23.70;;
14738;SDS011;7461;52.440;13.540;2024-03-07T12:00:46;27.00;;;24.60;;
14738;SDS011;7461;52.440;13.540;2024-03-07T12:03:14;24.88;;;22.77;;
14738;SDS011;7461;52.440;13.540;2024-03-07T12:05:45;24.23;;;22.25;;
14738;SDS011;7461;52.440;13.540;2024-03-07T12:08:12;25.77;;;22.73;;
14738;SDS011;7461;52.440;13.540;2024-03-07T12:10:40;25.35;;;22.80;;
14738;SDS011;7461;52.440;13.540;2024-03-07T12:13:12;25.38;;;23.08;;
14738;SDS011;7461;52.440;13.540;2024-03-07T12:15:41;26.48;;;24.23;;
14738;SDS011;7461;52.440;13.540;2024-03-07T12:18:08;23.58;;;21.63;;
14738;SDS011;7461;52.440;13.540;2024-03-07T12:20:39;26.08;;;23.80;;
14738;SDS011;7461;52.440;13.540;2024-03-07T12:23:08;22.60;;;20.75;;
14738;SDS011;7461;52.440;13.540;2024-03-07T12:25:37;22.77;;;20.98;;
14738;SDS011;7461;52.440;13.540;2024-03-07T12:28:05;25.33;;;22.73;;
14738;SDS011;7461;52.440;13.540;2024-03-07T12:30:37;24.35;;;22.33;;
14738;SDS011;7461;52.440;13.540;2024-03-07T12:33:04;27.05;;;24.70;;
14738;SDS011;7461;52.440;13.540;2024-03-07T12:35:33;26.08;;;23.90;;
14738;SDS011;7461;52.440;13.540;2024-03-07T12:38:01;28.90;;;26.17;;
14738;SDS011;7461;52.440;13.540;2024-03-07T12:40:31;25.73;;;23.42;;
14738;SDS011;7461;52.440;13.540;2024-03-07T12:43:00;23.38;;;21.58;;
14738;SDS011;7461;52.440;13.540;2024-03-07T12:45:28;24.70;;;22.60;;
14738;SDS011;7461;52.440;13.540;2024-03-07T12:47:58;24.77;;;22.60;;
14738;SDS011;7461;52.440;13.540;2024-03-07T12:50:29;23.40;;;21.60;;
14738;SDS011;7461;52.440;13.540;2024-03-07T12:53:00;21.98;;;20.20;;
14738;SDS011;7461;52.440;13.540;2024-03-07T12:55:32;24.92;;;22.60;;
14738;SDS011;7461;52.440;13.540;2024-03-07T12:58:01;23.25;;;21.45;;
14738;SDS011;7461;52.440;13.540;2024-03-07T13:00:29;25.05;;;23.05;;
14738;SDS011;7461;52.440;13.540;2024-03-07T13:02:57;26.58;;;24.25;;
14738;SDS011;7461;52.440;13.540;2024-03-07T13:05:24;23.75;;;21.45;;
14738;SDS011;7461;52.440;13.540;2024-03-07T13:07:51;24.63;;;22.35;;
14738;SDS011;7461;52.440;13.540;2024-03-07T13:10:19;21.48;;;19.70;;
14738;SDS011;7461;52.440;13.540;2024-03-07T13:12:47;23.10;;;21.02;;
14738;SDS011;7461;52.440;13.540;2024-03-07T13:15:15;23.58;;;21.48;;
14738;SDS011;7461;52.440;13.540;2024-03-07T13:17:42;24.27;;;22.20;;
14738;SDS011;7461;52.440;13.540;2024-03-07T13:20:11;22.35;;;20.55;;
14738;SDS011;7461;52.440;13.540;2024-03-07T13:22:40;24.05;;;22.10;;
14738;SDS011;7461;52.440;13.540;2024-03-07T13:25:09;27.55;;;25.13;;
14738;SDS011;7461;52.440;13.540;2024-03-07T13:27:43;26.35;;;24.02;;
14738;SDS011;7461;52.440;13.540;2024-03-07T13:30:12;24.70;;;22.70;;
14738;SDS011;7461;52.440;13.540;2024-03-07T13:32:49;28.27;;;25.83;;
14738;SDS011;7461;52.440;13.540;2024-03-07T13:35:18;26.30;;;23.90;;
14738;SDS011;7461;52.440;13.540;2024-03-07T13:37:47;23.52;;;21.55;;
14738;SDS011;7461;52.440;13.540;2024-03-07T13:40:15;24.15;;;21.92;;
14738;SDS011;7461;52.440;13.540;2024-03-07T13:42:52;24.45;;;22.35;;
14738;SDS011;7461;52.440;13.540;2024-03-07T13:45:24;23.02;;;21.15;;
14738;SDS011;7461;52.440;13.540;2024-03-07T13:47:52;24.40;;;22.42;;
14738;SDS011;7461;52.440;13.540;2024-03-07T13:50:21;23.95;;;22.13;;
14738;SDS011;7461;52.440;13.540;2024-03-07T13:52:49;23.55;;;21.73;;
14738;SDS011;7461;52.440;13.540;2024-03-07T13:55:40;24.73;;;22.55;;
14738;SDS011;7461;52.440;13.540;2024-03-07T13:58:09;24.92;;;23.00;;
14738;SDS011;7461;52.440;13.540;2024-03-07T14:00:44;23.38;;;21.38;;
14738;SDS011;7461;52.440;13.540;2024-03-07T14:03:28;23.70;;;21.73;;
14738;SDS011;7461;52.440;13.540;2024-03-07T14:05:59;24.15;;;21.75;;
14738;SDS011;7461;52.440;13.540;2024-03-07T14:11:19;26.38;;;24.08;;
14738;SDS011;7461;52.440;13.540;2024-03-07T14:14:00;26.42;;;24.15;;
14738;SDS011;7461;52.440;13.540;2024-03-07T14:16:43;26.98;;;24.48;;
14738;SDS011;7461;52.440;13.540;2024-03-07T14:19:25;24.85;;;22.20;;
14738;SDS011;7461;52.440;13.540;2024-03-07T14:22:05;22.58;;;20.67;;
14738;SDS011;7461;52.440;13.540;2024-03-07T14:27:25;22.33;;;20.05;;
14738;SDS011;7461;52.440;13.540;2024-03-07T14:29:57;21.92;;;20.13;;
14738;SDS011;7461;52.440;13.540;2024-03-07T14:32:30;23.15;;;21.00;;